Pazifik — ZDKS7 — position and weather

sailwx.info

Track history (hours):
 
Tides and Currents Weather Stations Pressure Air Temp Water Temp Dewpoint Dewpoint Depression Visibility Wind Speed Wind Dir Waves Ship Positions

Pazifik

Last reported at 2015-Aug-14 14:20 UTC. Time now 2015-Aug-31 00:40 UTC.
Position N 25°53' W 115°25'.
Warning: this ship's position is 16 days out of date.

Length 205 m.

Type: Ship (hazmat cat A). MMSI: 236111796.

Date/timePositionNaut miles runAvg speedWind from/ knotsBaromVisibWave heightAir tempDewpointWater temp
2015-Aug-14 14:20N 25°53' W 115°25'1316.8
2015-Aug-14 13:33N 26°01' W 115°37'1716.6
2015-Aug-14 12:33N 26°12' W 115°51'1716.8
2015-Aug-14 11:33N 26°23' W 116°06'1917.4
2015-Aug-14 10:29N 26°34' W 116°22'1617.1
2015-Aug-14 09:34N 26°44' W 116°36'1716.6
2015-Aug-14 08:32N 26°54' W 116°51'1616.3
2015-Aug-14 07:32N 27°05' W 117°05'1615.7
2015-Aug-14 06:30N 27°15' W 117°19'6515.8
2015-Aug-14 02:23N 27°56' W 118°16'5016.3
2015-Aug-13 23:19N 28°27' W 119°01'1216.3
2015-Aug-13 22:33N 28°35' W 119°12'1616.2
2015-Aug-13 21:33N 28°45' W 119°26'1616.4
2015-Aug-13 20:34N 28°55' W 119°41'1716.4
2015-Aug-13 19:30N 29°06' W 119°56'  
Track history (hours):
 
Tides and Currents Weather Stations Pressure Air Temp Water Temp Dewpoint Dewpoint Depression Visibility Wind Speed Wind Dir Waves Ship Positions

Pazifik

Last reported at 2015-Aug-14 14:20 UTC. Time now 2015-Aug-31 00:40 UTC.
Position N 25°53' W 115°25'.
Warning: this ship's position is 16 days out of date.

Length 205 m.

Type: Ship (hazmat cat A). MMSI: 236111796.

Date/timePositionNaut miles runAvg speedWind from/ knotsBaromVisibWave heightAir tempDewpointWater temp
2015-Aug-14 14:20N 25°53' W 115°25'1316.8
2015-Aug-14 13:33N 26°01' W 115°37'1716.6
2015-Aug-14 12:33N 26°12' W 115°51'1716.8
2015-Aug-14 11:33N 26°23' W 116°06'1917.4
2015-Aug-14 10:29N 26°34' W 116°22'1617.1
2015-Aug-14 09:34N 26°44' W 116°36'1716.6
2015-Aug-14 08:32N 26°54' W 116°51'1616.3
2015-Aug-14 07:32N 27°05' W 117°05'1615.7
2015-Aug-14 06:30N 27°15' W 117°19'6515.8
2015-Aug-14 02:23N 27°56' W 118°16'5016.3
2015-Aug-13 23:19N 28°27' W 119°01'1216.3
2015-Aug-13 22:33N 28°35' W 119°12'1616.2
2015-Aug-13 21:33N 28°45' W 119°26'1616.4
2015-Aug-13 20:34N 28°55' W 119°41'1716.4
2015-Aug-13 19:30N 29°06' W 119°56'  

Dump ship's entire track history